Terminal Aerodrome Forecast
Issued by NWS

Home | Current Version | Previous Version | Text Only | Print | Product List | Glossary On
Versions: 1 2 3 4 5 6 7 8 9 10 11 12 13 14 15 16 17 18 19 20 21 22 23 24 25 26 27
000
FTUS45 KRIW 281729
TAFPNA
TAF
KPNA 281729Z 2818/2918 31010KT P6SM SCT100
     FM281900 28016G26KT P6SM VCTS SCT070CB BKN090
     FM290300 30011KT P6SM VCSH BKN100
     FM290600 07007KT P6SM FEW100
     FM291600 30011KT P6SM SCT060 BKN080
      AMD LTD TO CLD VIS AND WIND=

USA.gov is the U.S. government's official web portal to all federal, state and local government web resources and services.